sensor_id;sensor_type;location;lat;lon;timestamp;P1;durP1;ratioP1;P2;durP2;ratioP2
75423;SDS011;64005;55.160;36.002;2023-04-29T00:02:21;3.20;;;1.13;;
75423;SDS011;64005;55.160;36.002;2023-04-29T00:04:49;4.15;;;1.42;;
75423;SDS011;64005;55.160;36.002;2023-04-29T00:07:16;4.60;;;1.70;;
75423;SDS011;64005;55.160;36.002;2023-04-29T00:09:44;6.07;;;1.73;;
75423;SDS011;64005;55.160;36.002;2023-04-29T00:12:13;2.97;;;1.10;;
75423;SDS011;64005;55.160;36.002;2023-04-29T00:14:40;3.83;;;1.55;;
75423;SDS011;64005;55.160;36.002;2023-04-29T00:17:08;4.53;;;1.58;;
75423;SDS011;64005;55.160;36.002;2023-04-29T00:19:36;5.30;;;1.67;;
75423;SDS011;64005;55.160;36.002;2023-04-29T00:22:03;3.28;;;1.45;;
75423;SDS011;64005;55.160;36.002;2023-04-29T00:24:31;5.20;;;1.40;;
75423;SDS011;64005;55.160;36.002;2023-04-29T00:26:58;3.42;;;1.23;;
75423;SDS011;64005;55.160;36.002;2023-04-29T00:29:28;5.47;;;2.00;;
75423;SDS011;64005;55.160;36.002;2023-04-29T00:31:57;3.28;;;1.30;;
75423;SDS011;64005;55.160;36.002;2023-04-29T00:34:24;6.00;;;1.80;;
75423;SDS011;64005;55.160;36.002;2023-04-29T00:36:52;3.60;;;1.48;;
75423;SDS011;64005;55.160;36.002;2023-04-29T00:39:19;5.57;;;1.60;;
75423;SDS011;64005;55.160;36.002;2023-04-29T00:41:47;3.38;;;1.45;;
75423;SDS011;64005;55.160;36.002;2023-04-29T00:44:15;5.05;;;1.73;;
75423;SDS011;64005;55.160;36.002;2023-04-29T00:46:48;3.55;;;1.10;;
75423;SDS011;64005;55.160;36.002;2023-04-29T00:49:20;4.22;;;1.48;;
75423;SDS011;64005;55.160;36.002;2023-04-29T00:51:48;3.85;;;1.65;;
75423;SDS011;64005;55.160;36.002;2023-04-29T00:54:16;3.75;;;1.70;;
75423;SDS011;64005;55.160;36.002;2023-04-29T00:56:44;3.85;;;1.70;;
75423;SDS011;64005;55.160;36.002;2023-04-29T00:59:12;5.43;;;1.60;;
75423;SDS011;64005;55.160;36.002;2023-04-29T01:01:41;4.13;;;1.45;;
75423;SDS011;64005;55.160;36.002;2023-04-29T01:04:11;6.70;;;1.50;;
75423;SDS011;64005;55.160;36.002;2023-04-29T01:06:41;3.65;;;1.48;;
75423;SDS011;64005;55.160;36.002;2023-04-29T01:09:21;4.18;;;1.63;;
75423;SDS011;64005;55.160;36.002;2023-04-29T01:11:59;3.90;;;1.48;;
75423;SDS011;64005;55.160;36.002;2023-04-29T01:14:34;3.40;;;1.45;;
75423;SDS011;64005;55.160;36.002;2023-04-29T01:19:43;4.55;;;1.63;;
75423;SDS011;64005;55.160;36.002;2023-04-29T01:22:13;3.97;;;1.48;;
75423;SDS011;64005;55.160;36.002;2023-04-29T01:24:43;3.30;;;1.60;;
75423;SDS011;64005;55.160;36.002;2023-04-29T01:27:13;10.85;;;1.80;;
75423;SDS011;64005;55.160;36.002;2023-04-29T01:29:52;4.63;;;1.52;;
75423;SDS011;64005;55.160;36.002;2023-04-29T01:32:28;4.72;;;1.50;;
75423;SDS011;64005;55.160;36.002;2023-04-29T01:35:06;3.47;;;1.55;;
75423;SDS011;64005;55.160;36.002;2023-04-29T01:37:46;3.00;;;1.17;;
75423;SDS011;64005;55.160;36.002;2023-04-29T01:40:32;3.50;;;1.33;;
75423;SDS011;64005;55.160;36.002;2023-04-29T01:43:04;3.80;;;1.40;;
75423;SDS011;64005;55.160;36.002;2023-04-29T01:45:37;3.60;;;1.55;;
75423;SDS011;64005;55.160;36.002;2023-04-29T01:48:06;5.35;;;1.65;;
75423;SDS011;64005;55.160;36.002;2023-04-29T01:50:35;5.22;;;2.10;;
75423;SDS011;64005;55.160;36.002;2023-04-29T01:53:03;3.60;;;1.33;;
75423;SDS011;64005;55.160;36.002;2023-04-29T01:55:33;4.00;;;1.52;;
75423;SDS011;64005;55.160;36.002;2023-04-29T01:58:00;5.18;;;1.92;;
75423;SDS011;64005;55.160;36.002;2023-04-29T02:00:28;3.78;;;1.60;;
75423;SDS011;64005;55.160;36.002;2023-04-29T02:02:55;3.63;;;1.50;;
75423;SDS011;64005;55.160;36.002;2023-04-29T02:05:23;3.83;;;1.45;;
75423;SDS011;64005;55.160;36.002;2023-04-29T02:07:50;3.65;;;1.45;;
75423;SDS011;64005;55.160;36.002;2023-04-29T02:10:18;5.30;;;1.73;;
75423;SDS011;64005;55.160;36.002;2023-04-29T02:12:48;5.53;;;1.70;;
75423;SDS011;64005;55.160;36.002;2023-04-29T02:18:02;6.22;;;1.30;;
75423;SDS011;64005;55.160;36.002;2023-04-29T02:20:29;4.40;;;1.88;;
75423;SDS011;64005;55.160;36.002;2023-04-29T02:22:57;5.10;;;1.67;;
75423;SDS011;64005;55.160;36.002;2023-04-29T02:25:24;4.07;;;1.50;;
75423;SDS011;64005;55.160;36.002;2023-04-29T02:27:53;3.60;;;1.70;;
75423;SDS011;64005;55.160;36.002;2023-04-29T02:30:21;4.45;;;1.58;;
75423;SDS011;64005;55.160;36.002;2023-04-29T02:32:49;4.00;;;1.58;;
75423;SDS011;64005;55.160;36.002;2023-04-29T02:35:17;4.75;;;1.85;;
75423;SDS011;64005;55.160;36.002;2023-04-29T02:37:45;3.92;;;1.80;;
75423;SDS011;64005;55.160;36.002;2023-04-29T02:40:12;4.43;;;1.75;;
75423;SDS011;64005;55.160;36.002;2023-04-29T02:42:40;4.30;;;1.70;;
75423;SDS011;64005;55.160;36.002;2023-04-29T02:45:10;5.68;;;1.98;;
75423;SDS011;64005;55.160;36.002;2023-04-29T02:47:37;4.13;;;1.77;;
75423;SDS011;64005;55.160;36.002;2023-04-29T02:50:05;5.53;;;1.88;;
75423;SDS011;64005;55.160;36.002;2023-04-29T02:52:33;5.15;;;2.33;;
75423;SDS011;64005;55.160;36.002;2023-04-29T02:55:01;4.10;;;1.70;;
75423;SDS011;64005;55.160;36.002;2023-04-29T02:57:29;3.45;;;1.60;;
75423;SDS011;64005;55.160;36.002;2023-04-29T02:59:57;4.25;;;1.60;;
75423;SDS011;64005;55.160;36.002;2023-04-29T03:02:26;3.88;;;1.60;;
75423;SDS011;64005;55.160;36.002;2023-04-29T03:04:53;3.47;;;1.50;;
75423;SDS011;64005;55.160;36.002;2023-04-29T03:07:21;4.63;;;1.65;;
75423;SDS011;64005;55.160;36.002;2023-04-29T03:09:48;3.35;;;1.55;;
75423;SDS011;64005;55.160;36.002;2023-04-29T03:12:15;6.28;;;2.47;;
75423;SDS011;64005;55.160;36.002;2023-04-29T03:14:43;7.63;;;1.98;;
75423;SDS011;64005;55.160;36.002;2023-04-29T03:17:10;3.58;;;1.58;;
75423;SDS011;64005;55.160;36.002;2023-04-29T03:19:39;5.18;;;2.10;;
75423;SDS011;64005;55.160;36.002;2023-04-29T03:22:06;5.57;;;2.00;;
75423;SDS011;64005;55.160;36.002;2023-04-29T03:24:36;4.22;;;1.90;;
75423;SDS011;64005;55.160;36.002;2023-04-29T03:27:04;4.60;;;2.17;;
75423;SDS011;64005;55.160;36.002;2023-04-29T03:29:31;6.15;;;2.28;;
75423;SDS011;64005;55.160;36.002;2023-04-29T03:31:59;5.90;;;1.83;;
75423;SDS011;64005;55.160;36.002;2023-04-29T03:34:27;5.78;;;1.77;;
75423;SDS011;64005;55.160;36.002;2023-04-29T03:36:56;5.13;;;2.08;;
75423;SDS011;64005;55.160;36.002;2023-04-29T03:39:24;4.22;;;1.85;;
75423;SDS011;64005;55.160;36.002;2023-04-29T03:41:52;6.38;;;2.03;;
75423;SDS011;64005;55.160;36.002;2023-04-29T03:44:20;5.78;;;1.88;;
75423;SDS011;64005;55.160;36.002;2023-04-29T03:46:48;5.07;;;1.92;;
75423;SDS011;64005;55.160;36.002;2023-04-29T03:49:15;4.53;;;2.10;;
75423;SDS011;64005;55.160;36.002;2023-04-29T03:51:43;4.60;;;1.60;;
75423;SDS011;64005;55.160;36.002;2023-04-29T03:54:12;4.60;;;1.88;;
75423;SDS011;64005;55.160;36.002;2023-04-29T03:56:40;4.15;;;1.80;;
75423;SDS011;64005;55.160;36.002;2023-04-29T03:59:07;4.22;;;2.13;;
75423;SDS011;64005;55.160;36.002;2023-04-29T04:01:35;4.75;;;1.90;;
75423;SDS011;64005;55.160;36.002;2023-04-29T04:04:02;4.32;;;1.90;;
75423;SDS011;64005;55.160;36.002;2023-04-29T04:06:31;4.32;;;1.77;;
75423;SDS011;64005;55.160;36.002;2023-04-29T04:08:58;6.78;;;2.15;;
75423;SDS011;64005;55.160;36.002;2023-04-29T04:11:27;5.57;;;1.77;;
75423;SDS011;64005;55.160;36.002;2023-04-29T04:13:55;5.30;;;1.90;;
75423;SDS011;64005;55.160;36.002;2023-04-29T04:16:22;4.10;;;2.10;;
75423;SDS011;64005;55.160;36.002;2023-04-29T04:18:50;4.53;;;1.63;;
75423;SDS011;64005;55.160;36.002;2023-04-29T04:21:17;3.85;;;1.40;;
75423;SDS011;64005;55.160;36.002;2023-04-29T04:23:45;4.10;;;1.60;;
75423;SDS011;64005;55.160;36.002;2023-04-29T04:26:12;7.63;;;2.03;;
75423;SDS011;64005;55.160;36.002;2023-04-29T04:28:41;4.13;;;1.77;;
75423;SDS011;64005;55.160;36.002;2023-04-29T04:31:09;4.43;;;1.85;;
75423;SDS011;64005;55.160;36.002;2023-04-29T04:33:37;5.43;;;2.00;;
75423;SDS011;64005;55.160;36.002;2023-04-29T04:36:05;4.55;;;2.00;;
75423;SDS011;64005;55.160;36.002;2023-04-29T04:38:33;4.93;;;2.00;;
75423;SDS011;64005;55.160;36.002;2023-04-29T04:41:01;4.57;;;1.83;;
75423;SDS011;64005;55.160;36.002;2023-04-29T04:43:28;4.82;;;2.10;;
75423;SDS011;64005;55.160;36.002;2023-04-29T04:45:59;4.20;;;1.92;;
75423;SDS011;64005;55.160;36.002;2023-04-29T04:48:27;4.28;;;1.98;;
75423;SDS011;64005;55.160;36.002;2023-04-29T04:50:55;6.20;;;2.33;;
75423;SDS011;64005;55.160;36.002;2023-04-29T04:53:22;3.63;;;1.63;;
75423;SDS011;64005;55.160;36.002;2023-04-29T04:55:50;4.63;;;2.03;;
75423;SDS011;64005;55.160;36.002;2023-04-29T04:58:18;4.97;;;2.25;;
75423;SDS011;64005;55.160;36.002;2023-04-29T05:00:45;6.22;;;2.33;;
75423;SDS011;64005;55.160;36.002;2023-04-29T05:03:14;4.82;;;2.35;;
75423;SDS011;64005;55.160;36.002;2023-04-29T05:05:42;4.57;;;2.10;;
75423;SDS011;64005;55.160;36.002;2023-04-29T05:08:09;6.05;;;2.45;;
75423;SDS011;64005;55.160;36.002;2023-04-29T05:10:37;4.57;;;2.03;;
75423;SDS011;64005;55.160;36.002;2023-04-29T05:13:04;4.35;;;2.10;;
75423;SDS011;64005;55.160;36.002;2023-04-29T05:15:31;5.60;;;2.38;;
75423;SDS011;64005;55.160;36.002;2023-04-29T05:17:59;6.00;;;2.22;;
75423;SDS011;64005;55.160;36.002;2023-04-29T05:20:28;5.60;;;2.30;;
75423;SDS011;64005;55.160;36.002;2023-04-29T05:22:56;5.03;;;2.05;;
75423;SDS011;64005;55.160;36.002;2023-04-29T05:25:23;5.47;;;2.10;;
75423;SDS011;64005;55.160;36.002;2023-04-29T05:27:51;5.72;;;2.47;;
75423;SDS011;64005;55.160;36.002;2023-04-29T05:30:19;4.90;;;1.92;;
75423;SDS011;64005;55.160;36.002;2023-04-29T05:32:47;4.13;;;2.08;;
75423;SDS011;64005;55.160;36.002;2023-04-29T05:35:14;6.70;;;2.42;;
75423;SDS011;64005;55.160;36.002;2023-04-29T05:37:44;4.25;;;1.95;;
75423;SDS011;64005;55.160;36.002;2023-04-29T05:40:11;4.57;;;2.17;;
75423;SDS011;64005;55.160;36.002;2023-04-29T05:42:39;4.63;;;2.05;;
75423;SDS011;64005;55.160;36.002;2023-04-29T05:45:07;4.10;;;1.90;;
75423;SDS011;64005;55.160;36.002;2023-04-29T05:47:36;3.75;;;2.03;;
75423;SDS011;64005;55.160;36.002;2023-04-29T05:50:04;3.90;;;1.63;;
75423;SDS011;64005;55.160;36.002;2023-04-29T05:52:33;4.32;;;1.80;;
75423;SDS011;64005;55.160;36.002;2023-04-29T05:55:02;4.38;;;1.60;;
75423;SDS011;64005;55.160;36.002;2023-04-29T05:57:31;3.60;;;1.48;;
75423;SDS011;64005;55.160;36.002;2023-04-29T05:59:58;3.15;;;1.30;;
75423;SDS011;64005;55.160;36.002;2023-04-29T06:02:26;2.05;;;1.00;;
75423;SDS011;64005;55.160;36.002;2023-04-29T06:04:53;4.00;;;1.27;;
75423;SDS011;64005;55.160;36.002;2023-04-29T06:07:21;3.10;;;1.30;;
75423;SDS011;64005;55.160;36.002;2023-04-29T06:09:49;4.47;;;1.30;;
75423;SDS011;64005;55.160;36.002;2023-04-29T06:12:18;2.63;;;0.98;;
75423;SDS011;64005;55.160;36.002;2023-04-29T06:14:46;2.78;;;1.10;;
75423;SDS011;64005;55.160;36.002;2023-04-29T06:17:13;3.10;;;1.27;;
75423;SDS011;64005;55.160;36.002;2023-04-29T06:19:41;1.80;;;0.85;;
75423;SDS011;64005;55.160;36.002;2023-04-29T06:22:44;3.20;;;1.02;;
75423;SDS011;64005;55.160;36.002;2023-04-29T06:25:12;2.53;;;0.77;;
75423;SDS011;64005;55.160;36.002;2023-04-29T06:30:28;4.03;;;1.27;;
75423;SDS011;64005;55.160;36.002;2023-04-29T06:32:56;1.45;;;0.60;;
75423;SDS011;64005;55.160;36.002;2023-04-29T06:35:24;3.72;;;1.08;;
75423;SDS011;64005;55.160;36.002;2023-04-29T06:37:53;1.73;;;0.60;;
75423;SDS011;64005;55.160;36.002;2023-04-29T06:40:21;3.40;;;0.85;;
75423;SDS011;64005;55.160;36.002;2023-04-29T06:42:48;2.58;;;0.90;;
75423;SDS011;64005;55.160;36.002;2023-04-29T06:45:16;2.63;;;0.90;;
75423;SDS011;64005;55.160;36.002;2023-04-29T06:47:45;5.28;;;1.00;;
75423;SDS011;64005;55.160;36.002;2023-04-29T06:50:12;1.52;;;0.70;;
75423;SDS011;64005;55.160;36.002;2023-04-29T06:52:40;2.45;;;0.95;;
75423;SDS011;64005;55.160;36.002;2023-04-29T06:55:09;4.22;;;0.95;;
75423;SDS011;64005;55.160;36.002;2023-04-29T06:57:37;2.05;;;0.80;;
75423;SDS011;64005;55.160;36.002;2023-04-29T07:00:06;2.63;;;0.90;;
75423;SDS011;64005;55.160;36.002;2023-04-29T07:02:34;6.85;;;1.27;;
75423;SDS011;64005;55.160;36.002;2023-04-29T07:05:03;3.20;;;0.90;;
75423;SDS011;64005;55.160;36.002;2023-04-29T07:07:37;2.85;;;0.95;;
75423;SDS011;64005;55.160;36.002;2023-04-29T07:10:05;2.05;;;1.00;;
75423;SDS011;64005;55.160;36.002;2023-04-29T07:12:41;2.92;;;0.60;;
75423;SDS011;64005;55.160;36.002;2023-04-29T07:21:01;2.42;;;0.60;;
75423;SDS011;64005;55.160;36.002;2023-04-29T07:23:29;2.20;;;0.77;;
75423;SDS011;64005;55.160;36.002;2023-04-29T07:25:57;3.10;;;0.60;;
75423;SDS011;64005;55.160;36.002;2023-04-29T07:28:26;5.05;;;0.55;;
75423;SDS011;64005;55.160;36.002;2023-04-29T07:30:54;2.88;;;0.68;;
75423;SDS011;64005;55.160;36.002;2023-04-29T07:33:22;1.98;;;0.80;;
75423;SDS011;64005;55.160;36.002;2023-04-29T07:35:49;1.50;;;0.57;;
75423;SDS011;64005;55.160;36.002;2023-04-29T07:38:17;1.88;;;0.85;;
75423;SDS011;64005;55.160;36.002;2023-04-29T07:40:45;0.88;;;0.25;;
75423;SDS011;64005;55.160;36.002;2023-04-29T07:46:10;1.90;;;0.50;;
75423;SDS011;64005;55.160;36.002;2023-04-29T07:48:38;3.17;;;1.10;;
75423;SDS011;64005;55.160;36.002;2023-04-29T07:51:06;2.05;;;0.65;;
75423;SDS011;64005;55.160;36.002;2023-04-29T07:53:39;2.45;;;0.65;;
75423;SDS011;64005;55.160;36.002;2023-04-29T07:56:08;2.72;;;0.98;;
75423;SDS011;64005;55.160;36.002;2023-04-29T07:58:35;1.90;;;0.52;;
75423;SDS011;64005;55.160;36.002;2023-04-29T08:03:40;2.70;;;0.77;;
75423;SDS011;64005;55.160;36.002;2023-04-29T08:06:07;2.45;;;1.10;;
75423;SDS011;64005;55.160;36.002;2023-04-29T08:08:53;1.92;;;0.60;;
75423;SDS011;64005;55.160;36.002;2023-04-29T08:11:21;1.75;;;0.50;;
75423;SDS011;64005;55.160;36.002;2023-04-29T08:16:49;3.58;;;0.73;;
75423;SDS011;64005;55.160;36.002;2023-04-29T08:19:19;3.15;;;0.82;;
75423;SDS011;64005;55.160;36.002;2023-04-29T08:24:22;1.58;;;0.70;;
75423;SDS011;64005;55.160;36.002;2023-04-29T08:32:13;2.55;;;0.77;;
75423;SDS011;64005;55.160;36.002;2023-04-29T08:34:42;1.70;;;0.68;;
75423;SDS011;64005;55.160;36.002;2023-04-29T08:37:09;2.75;;;0.70;;
75423;SDS011;64005;55.160;36.002;2023-04-29T08:39:37;1.63;;;0.55;;
75423;SDS011;64005;55.160;36.002;2023-04-29T08:42:07;2.53;;;0.60;;
75423;SDS011;64005;55.160;36.002;2023-04-29T08:44:35;1.92;;;0.60;;
75423;SDS011;64005;55.160;36.002;2023-04-29T08:47:04;1.20;;;0.50;;
75423;SDS011;64005;55.160;36.002;2023-04-29T08:49:32;1.15;;;0.43;;
75423;SDS011;64005;55.160;36.002;2023-04-29T08:52:03;1.70;;;0.50;;
75423;SDS011;64005;55.160;36.002;2023-04-29T08:57:18;1.05;;;0.50;;
75423;SDS011;64005;55.160;36.002;2023-04-29T08:59:46;2.67;;;0.80;;
75423;SDS011;64005;55.160;36.002;2023-04-29T09:02:14;2.40;;;0.50;;
75423;SDS011;64005;55.160;36.002;2023-04-29T09:04:46;1.30;;;0.60;;
75423;SDS011;64005;55.160;36.002;2023-04-29T09:10:31;0.43;;;0.22;;
75423;SDS011;64005;55.160;36.002;2023-04-29T09:13:02;3.05;;;0.60;;
75423;SDS011;64005;55.160;36.002;2023-04-29T09:15:34;1.42;;;0.60;;
75423;SDS011;64005;55.160;36.002;2023-04-29T09:18:05;2.70;;;1.00;;
75423;SDS011;64005;55.160;36.002;2023-04-29T09:20:32;2.90;;;0.88;;
75423;SDS011;64005;55.160;36.002;2023-04-29T09:26:02;2.95;;;0.70;;
75423;SDS011;64005;55.160;36.002;2023-04-29T09:31:05;1.27;;;0.30;;
75423;SDS011;64005;55.160;36.002;2023-04-29T09:39:04;2.25;;;0.60;;
75423;SDS011;64005;55.160;36.002;2023-04-29T09:41:36;1.05;;;0.45;;
75423;SDS011;64005;55.160;36.002;2023-04-29T09:49:40;1.27;;;0.40;;
75423;SDS011;64005;55.160;36.002;2023-04-29T09:52:11;3.08;;;0.80;;
75423;SDS011;64005;55.160;36.002;2023-04-29T09:57:39;1.13;;;0.45;;
75423;SDS011;64005;55.160;36.002;2023-04-29T10:00:07;1.33;;;0.40;;
75423;SDS011;64005;55.160;36.002;2023-04-29T10:02:36;1.70;;;0.50;;
75423;SDS011;64005;55.160;36.002;2023-04-29T10:05:08;2.13;;;1.00;;
75423;SDS011;64005;55.160;36.002;2023-04-29T10:10:41;0.40;;;0.22;;
75423;SDS011;64005;55.160;36.002;2023-04-29T10:13:12;1.15;;;0.52;;
75423;SDS011;64005;55.160;36.002;2023-04-29T10:23:37;1.95;;;0.60;;
75423;SDS011;64005;55.160;36.002;2023-04-29T10:26:08;1.50;;;0.20;;
75423;SDS011;64005;55.160;36.002;2023-04-29T10:28:49;0.55;;;0.25;;
75423;SDS011;64005;55.160;36.002;2023-04-29T10:33:54;1.92;;;0.47;;
75423;SDS011;64005;55.160;36.002;2023-04-29T10:36:23;1.65;;;0.50;;
75423;SDS011;64005;55.160;36.002;2023-04-29T10:41:49;1.40;;;0.40;;
75423;SDS011;64005;55.160;36.002;2023-04-29T10:44:20;2.00;;;0.70;;
75423;SDS011;64005;55.160;36.002;2023-04-29T10:52:52;1.65;;;0.60;;
75423;SDS011;64005;55.160;36.002;2023-04-29T10:55:22;1.35;;;0.50;;
75423;SDS011;64005;55.160;36.002;2023-04-29T10:57:52;1.98;;;0.43;;
75423;SDS011;64005;55.160;36.002;2023-04-29T11:00:23;1.65;;;0.60;;
75423;SDS011;64005;55.160;36.002;2023-04-29T11:02:54;1.25;;;0.30;;
75423;SDS011;64005;55.160;36.002;2023-04-29T11:05:28;0.50;;;0.20;;
75423;SDS011;64005;55.160;36.002;2023-04-29T11:10:34;1.95;;;0.60;;
75423;SDS011;64005;55.160;36.002;2023-04-29T11:24:02;0.57;;;0.32;;
75423;SDS011;64005;55.160;36.002;2023-04-29T11:26:31;1.48;;;0.50;;
75423;SDS011;64005;55.160;36.002;2023-04-29T11:29:00;1.92;;;0.68;;
75423;SDS011;64005;55.160;36.002;2023-04-29T11:34:05;2.38;;;0.50;;
75423;SDS011;64005;55.160;36.002;2023-04-29T11:36:34;1.30;;;0.50;;
75423;SDS011;64005;55.160;36.002;2023-04-29T11:39:02;1.08;;;0.30;;
75423;SDS011;64005;55.160;36.002;2023-04-29T11:41:30;2.55;;;0.63;;
75423;SDS011;64005;55.160;36.002;2023-04-29T11:44:00;1.00;;;0.50;;
75423;SDS011;64005;55.160;36.002;2023-04-29T11:46:30;2.17;;;0.55;;
75423;SDS011;64005;55.160;36.002;2023-04-29T12:09:44;2.65;;;0.57;;
75423;SDS011;64005;55.160;36.002;2023-04-29T12:12:13;1.05;;;0.47;;
75423;SDS011;64005;55.160;36.002;2023-04-29T12:17:17;1.48;;;0.60;;
75423;SDS011;64005;55.160;36.002;2023-04-29T12:19:46;1.27;;;0.50;;
75423;SDS011;64005;55.160;36.002;2023-04-29T12:22:14;1.52;;;0.52;;
75423;SDS011;64005;55.160;36.002;2023-04-29T12:24:41;2.03;;;0.50;;
75423;SDS011;64005;55.160;36.002;2023-04-29T12:27:11;2.58;;;0.80;;
75423;SDS011;64005;55.160;36.002;2023-04-29T12:29:38;3.88;;;0.80;;
75423;SDS011;64005;55.160;36.002;2023-04-29T12:32:06;2.20;;;0.70;;
75423;SDS011;64005;55.160;36.002;2023-04-29T12:34:38;2.03;;;0.50;;
75423;SDS011;64005;55.160;36.002;2023-04-29T12:37:06;2.22;;;0.73;;
75423;SDS011;64005;55.160;36.002;2023-04-29T12:39:37;2.25;;;0.50;;
75423;SDS011;64005;55.160;36.002;2023-04-29T12:42:05;0.88;;;0.45;;
75423;SDS011;64005;55.160;36.002;2023-04-29T12:44:35;2.00;;;0.50;;
75423;SDS011;64005;55.160;36.002;2023-04-29T12:49:40;1.95;;;0.30;;
75423;SDS011;64005;55.160;36.002;2023-04-29T12:52:09;1.50;;;0.50;;
75423;SDS011;64005;55.160;36.002;2023-04-29T12:54:37;1.80;;;0.38;;
75423;SDS011;64005;55.160;36.002;2023-04-29T12:57:06;2.25;;;0.70;;
75423;SDS011;64005;55.160;36.002;2023-04-29T12:59:35;1.40;;;0.55;;
75423;SDS011;64005;55.160;36.002;2023-04-29T13:02:02;2.38;;;0.63;;
75423;SDS011;64005;55.160;36.002;2023-04-29T13:04:30;1.02;;;0.38;;
75423;SDS011;64005;55.160;36.002;2023-04-29T13:06:57;2.28;;;0.60;;
75423;SDS011;64005;55.160;36.002;2023-04-29T13:09:25;2.35;;;0.60;;
75423;SDS011;64005;55.160;36.002;2023-04-29T13:11:53;1.33;;;0.50;;
75423;SDS011;64005;55.160;36.002;2023-04-29T13:14:20;2.60;;;0.60;;
75423;SDS011;64005;55.160;36.002;2023-04-29T13:16:49;1.58;;;0.40;;
75423;SDS011;64005;55.160;36.002;2023-04-29T13:19:17;1.38;;;0.40;;
75423;SDS011;64005;55.160;36.002;2023-04-29T13:21:44;0.93;;;0.32;;
75423;SDS011;64005;55.160;36.002;2023-04-29T13:24:13;1.10;;;0.40;;
75423;SDS011;64005;55.160;36.002;2023-04-29T13:26:42;1.38;;;0.40;;
75423;SDS011;64005;55.160;36.002;2023-04-29T13:29:11;1.85;;;0.40;;
75423;SDS011;64005;55.160;36.002;2023-04-29T13:31:39;1.25;;;0.50;;
75423;SDS011;64005;55.160;36.002;2023-04-29T13:34:10;1.92;;;0.73;;
75423;SDS011;64005;55.160;36.002;2023-04-29T13:36:37;2.80;;;0.68;;
75423;SDS011;64005;55.160;36.002;2023-04-29T13:39:04;1.05;;;0.40;;
75423;SDS011;64005;55.160;36.002;2023-04-29T13:41:32;0.88;;;0.30;;
75423;SDS011;64005;55.160;36.002;2023-04-29T13:44:00;1.00;;;0.30;;
75423;SDS011;64005;55.160;36.002;2023-04-29T13:46:27;1.50;;;0.57;;
75423;SDS011;64005;55.160;36.002;2023-04-29T13:48:56;0.52;;;0.28;;
75423;SDS011;64005;55.160;36.002;2023-04-29T13:51:26;1.27;;;0.40;;
75423;SDS011;64005;55.160;36.002;2023-04-29T13:53:53;1.90;;;0.60;;
75423;SDS011;64005;55.160;36.002;2023-04-29T13:56:21;1.13;;;0.50;;
75423;SDS011;64005;55.160;36.002;2023-04-29T13:58:50;1.27;;;0.43;;
75423;SDS011;64005;55.160;36.002;2023-04-29T14:01:17;0.30;;;0.30;;
75423;SDS011;64005;55.160;36.002;2023-04-29T14:03:46;1.45;;;0.50;;
75423;SDS011;64005;55.160;36.002;2023-04-29T14:06:14;0.75;;;0.40;;
75423;SDS011;64005;55.160;36.002;2023-04-29T14:08:43;1.40;;;0.40;;
75423;SDS011;64005;55.160;36.002;2023-04-29T14:11:10;1.13;;;0.40;;
75423;SDS011;64005;55.160;36.002;2023-04-29T14:13:37;0.77;;;0.40;;
75423;SDS011;64005;55.160;36.002;2023-04-29T14:16:05;1.13;;;0.40;;
75423;SDS011;64005;55.160;36.002;2023-04-29T14:18:34;4.95;;;1.83;;
75423;SDS011;64005;55.160;36.002;2023-04-29T14:21:01;2.22;;;0.50;;
75423;SDS011;64005;55.160;36.002;2023-04-29T14:23:29;3.03;;;1.15;;
75423;SDS011;64005;55.160;36.002;2023-04-29T14:25:58;1.77;;;0.70;;
75423;SDS011;64005;55.160;36.002;2023-04-29T14:28:26;1.38;;;0.60;;
75423;SDS011;64005;55.160;36.002;2023-04-29T14:30:54;2.13;;;0.65;;
75423;SDS011;64005;55.160;36.002;2023-04-29T14:33:21;0.77;;;0.28;;
75423;SDS011;64005;55.160;36.002;2023-04-29T14:35:49;1.08;;;0.45;;
75423;SDS011;64005;55.160;36.002;2023-04-29T14:38:17;1.45;;;0.52;;
75423;SDS011;64005;55.160;36.002;2023-04-29T14:40:44;3.70;;;1.55;;
75423;SDS011;64005;55.160;36.002;2023-04-29T14:43:13;1.52;;;0.32;;
75423;SDS011;64005;55.160;36.002;2023-04-29T14:45:41;0.95;;;0.40;;
75423;SDS011;64005;55.160;36.002;2023-04-29T14:48:09;1.00;;;0.40;;
75423;SDS011;64005;55.160;36.002;2023-04-29T14:50:37;3.30;;;0.63;;
75423;SDS011;64005;55.160;36.002;2023-04-29T14:56:12;1.88;;;0.40;;
75423;SDS011;64005;55.160;36.002;2023-04-29T14:58:45;6.88;;;2.25;;
75423;SDS011;64005;55.160;36.002;2023-04-29T15:01:14;1.63;;;0.50;;
75423;SDS011;64005;55.160;36.002;2023-04-29T15:03:48;1.23;;;0.40;;
75423;SDS011;64005;55.160;36.002;2023-04-29T15:06:20;0.52;;;0.28;;
75423;SDS011;64005;55.160;36.002;2023-04-29T15:08:53;1.17;;;0.40;;
75423;SDS011;64005;55.160;36.002;2023-04-29T15:14:49;1.23;;;0.50;;
75423;SDS011;64005;55.160;36.002;2023-04-29T15:17:19;2.20;;;0.70;;
75423;SDS011;64005;55.160;36.002;2023-04-29T15:20:00;3.05;;;1.00;;
75423;SDS011;64005;55.160;36.002;2023-04-29T15:22:30;5.32;;;0.70;;
75423;SDS011;64005;55.160;36.002;2023-04-29T15:24:58;2.15;;;0.60;;
75423;SDS011;64005;55.160;36.002;2023-04-29T15:27:28;2.03;;;0.77;;
75423;SDS011;64005;55.160;36.002;2023-04-29T15:29:59;1.77;;;0.50;;
75423;SDS011;64005;55.160;36.002;2023-04-29T15:32:31;3.50;;;0.52;;
75423;SDS011;64005;55.160;36.002;2023-04-29T15:35:04;1.98;;;0.45;;
75423;SDS011;64005;55.160;36.002;2023-04-29T15:37:38;3.40;;;0.70;;
75423;SDS011;64005;55.160;36.002;2023-04-29T15:40:11;4.05;;;1.52;;
75423;SDS011;64005;55.160;36.002;2023-04-29T15:42:44;1.70;;;0.60;;
75423;SDS011;64005;55.160;36.002;2023-04-29T15:45:15;3.00;;;0.60;;
75423;SDS011;64005;55.160;36.002;2023-04-29T15:47:46;2.72;;;1.05;;
75423;SDS011;64005;55.160;36.002;2023-04-29T15:50:17;3.08;;;1.08;;
75423;SDS011;64005;55.160;36.002;2023-04-29T15:52:45;2.47;;;0.82;;
75423;SDS011;64005;55.160;36.002;2023-04-29T15:55:12;1.55;;;0.60;;
75423;SDS011;64005;55.160;36.002;2023-04-29T15:57:40;4.47;;;1.20;;
75423;SDS011;64005;55.160;36.002;2023-04-29T16:00:08;2.28;;;0.70;;
75423;SDS011;64005;55.160;36.002;2023-04-29T16:02:38;1.33;;;0.40;;
75423;SDS011;64005;55.160;36.002;2023-04-29T16:05:06;2.58;;;1.00;;
75423;SDS011;64005;55.160;36.002;2023-04-29T16:10:10;2.25;;;0.80;;
75423;SDS011;64005;55.160;36.002;2023-04-29T16:12:38;2.38;;;0.75;;
75423;SDS011;64005;55.160;36.002;2023-04-29T16:15:06;3.58;;;1.02;;
75423;SDS011;64005;55.160;36.002;2023-04-29T16:17:34;2.28;;;0.82;;
75423;SDS011;64005;55.160;36.002;2023-04-29T16:20:10;1.98;;;0.90;;
75423;SDS011;64005;55.160;36.002;2023-04-29T16:22:39;2.30;;;0.70;;
75423;SDS011;64005;55.160;36.002;2023-04-29T16:25:21;4.93;;;1.00;;
75423;SDS011;64005;55.160;36.002;2023-04-29T16:27:48;2.28;;;0.60;;
75423;SDS011;64005;55.160;36.002;2023-04-29T16:30:17;2.90;;;0.70;;
75423;SDS011;64005;55.160;36.002;2023-04-29T16:32:44;2.35;;;0.60;;
75423;SDS011;64005;55.160;36.002;2023-04-29T16:35:14;1.67;;;0.60;;
75423;SDS011;64005;55.160;36.002;2023-04-29T16:40:19;1.70;;;0.70;;
75423;SDS011;64005;55.160;36.002;2023-04-29T16:42:48;2.55;;;0.95;;
75423;SDS011;64005;55.160;36.002;2023-04-29T16:45:15;2.40;;;0.80;;
75423;SDS011;64005;55.160;36.002;2023-04-29T16:47:43;2.92;;;0.85;;
75423;SDS011;64005;55.160;36.002;2023-04-29T16:50:11;2.35;;;0.88;;
75423;SDS011;64005;55.160;36.002;2023-04-29T16:52:42;3.00;;;0.80;;
75423;SDS011;64005;55.160;36.002;2023-04-29T16:55:21;3.10;;;0.80;;
75423;SDS011;64005;55.160;36.002;2023-04-29T16:57:50;4.07;;;0.77;;